Time;durP1;ratioP1;P1;durP2;ratioP2;P2;SDS_P1;SDS_P2;PMS_P1;PMS_P2;Temp;Humidity;BMP_temperature;BMP_pressure;BME280_temperature;BME280_humidity;BME280_pressure;Samples;Min_cycle;Max_cycle;Signal;HPM_P1;HPM_P2
2022/06/29 00:00:26;;;;;;;2.10;1.05;;;26.00;82.70;;;;;;5061652;28;19924;-52
2022/06/29 00:02:54;;;;;;;0.22;0.22;;;26.00;82.80;;;;;;5055991;28;20531;-54
2022/06/29 00:05:23;;;;;;;0.20;0.20;;;26.00;83.00;;;;;;5052272;28;21559;-53
2022/06/29 00:07:52;;;;;;;0.45;0.40;;;26.00;83.10;;;;;;5047959;28;20049;-57
2022/06/29 00:10:20;;;;;;;0.80;0.40;;;26.00;83.30;;;;;;5048364;28;20056;-53
2022/06/29 00:12:48;;;;;;;0.30;0.30;;;26.00;83.40;;;;;;5054022;28;20436;-56
2022/06/29 00:15:17;;;;;;;0.30;0.30;;;26.00;83.60;;;;;;5055720;28;20044;-57
2022/06/29 00:17:44;;;;;;;0.20;0.20;;;26.00;83.70;;;;;;5047254;28;20052;-52
2022/06/29 00:20:12;;;;;;;0.30;0.30;;;26.00;83.80;;;;;;5061746;28;20389;-56
2022/06/29 00:22:41;;;;;;;0.35;0.35;;;26.00;84.00;;;;;;5058756;28;20538;-53
2022/06/29 00:25:10;;;;;;;0.20;0.20;;;26.00;84.00;;;;;;5048033;28;20041;-55
2022/06/29 00:27:39;;;;;;;0.40;0.40;;;26.00;84.10;;;;;;5049238;28;20045;-54
2022/06/29 00:30:07;;;;;;;0.60;0.60;;;26.00;84.50;;;;;;5047563;28;20046;-52
2022/06/29 00:32:34;;;;;;;1.40;0.82;;;26.00;84.40;;;;;;5060060;28;20045;-55
2022/06/29 00:35:01;;;;;;;0.30;0.30;;;26.00;84.50;;;;;;5047772;28;20049;-51
2022/06/29 00:37:29;;;;;;;1.55;0.57;;;26.00;84.60;;;;;;5047034;28;20056;-55
2022/06/29 00:39:56;;;;;;;0.20;0.20;;;26.00;84.80;;;;;;5047336;28;20527;-54
2022/06/29 00:42:24;;;;;;;0.20;0.20;;;26.00;85.00;;;;;;5053657;28;20069;-51
2022/06/29 00:44:51;;;;;;;2.08;0.50;;;26.00;85.10;;;;;;5047027;28;20056;-55
2022/06/29 00:47:19;;;;;;;0.30;0.30;;;26.00;85.20;;;;;;5048876;28;20056;-54
2022/06/29 00:49:47;;;;;;;0.20;0.20;;;26.00;85.30;;;;;;5047462;28;20048;-51
2022/06/29 00:52:16;;;;;;;0.28;0.28;;;26.00;85.40;;;;;;5046555;28;20049;-56
2022/06/29 00:54:46;;;;;;;3.20;1.45;;;26.00;85.50;;;;;;5046513;28;20404;-56
2022/06/29 00:57:19;;;;;;;0.25;0.25;;;26.00;85.60;;;;;;5048426;28;20056;-56
2022/06/29 00:59:49;;;;;;;0.35;0.35;;;26.00;85.70;;;;;;5061593;28;20040;-58
2022/06/29 01:02:20;;;;;;;0.20;0.20;;;26.00;85.80;;;;;;5052591;28;20045;-57
2022/06/29 01:04:49;;;;;;;0.20;0.20;;;26.00;85.80;;;;;;5046007;28;20385;-53
2022/06/29 01:07:18;;;;;;;0.47;0.47;;;26.00;85.90;;;;;;5046660;28;20049;-53
2022/06/29 01:09:46;;;;;;;0.30;0.30;;;26.00;85.90;;;;;;5046474;28;20045;-53
2022/06/29 01:12:14;;;;;;;2.72;0.82;;;26.00;86.00;;;;;;5049343;28;20049;-53
2022/06/29 01:14:43;;;;;;;0.30;0.30;;;26.00;86.00;;;;;;5046142;28;20049;-54
2022/06/29 01:17:11;;;;;;;0.32;0.32;;;26.00;86.10;;;;;;5047980;28;20049;-52
2022/06/29 01:19:41;;;;;;;0.20;0.20;;;26.00;86.20;;;;;;5047123;28;20562;-54
2022/06/29 01:22:13;;;;;;;0.25;0.25;;;25.90;86.20;;;;;;5046939;28;20447;-56
2022/06/29 01:24:44;;;;;;;0.20;0.20;;;25.90;86.30;;;;;;5048014;28;20524;-55
2022/06/29 01:27:13;;;;;;;1.55;0.95;;;26.00;86.40;;;;;;5055566;28;20045;-53
2022/06/29 01:29:41;;;;;;;0.68;0.45;;;25.90;86.40;;;;;;5049938;28;20049;-55
2022/06/29 01:32:09;;;;;;;0.50;0.50;;;26.00;86.50;;;;;;5058522;28;20041;-53
2022/06/29 01:34:37;;;;;;;1.35;0.93;;;26.00;86.60;;;;;;5053951;28;20045;-55
2022/06/29 01:37:06;;;;;;;0.20;0.20;;;25.90;86.60;;;;;;5051027;28;20052;-52
2022/06/29 01:39:33;;;;;;;0.90;0.55;;;25.90;86.80;;;;;;5050837;28;20067;-56
2022/06/29 01:42:01;;;;;;;0.20;0.20;;;26.00;86.90;;;;;;5054157;28;20052;-57
2022/06/29 01:44:28;;;;;;;0.47;0.47;;;26.00;87.00;;;;;;5050049;28;20424;-54
2022/06/29 01:46:56;;;;;;;0.20;0.20;;;25.90;87.00;;;;;;5051754;28;20053;-56
2022/06/29 01:49:23;;;;;;;0.20;0.20;;;25.90;87.10;;;;;;5052175;28;20049;-57
2022/06/29 01:51:51;;;;;;;0.35;0.35;;;25.90;87.30;;;;;;5052180;28;20048;-57
2022/06/29 01:54:18;;;;;;;;;;;25.90;87.30;;;;;;5057158;28;20049;-57
2022/06/29 01:56:45;;;;;;;0.50;0.50;;;26.00;87.40;;;;;;5051736;28;19924;-56
2022/06/29 01:59:13;;;;;;;0.20;0.20;;;25.90;87.50;;;;;;5058099;28;20047;-53
2022/06/29 02:01:40;;;;;;;0.30;0.30;;;26.00;87.60;;;;;;5057990;28;20566;-55
2022/06/29 02:04:07;;;;;;;0.20;0.20;;;26.00;87.60;;;;;;5049712;28;20613;-54
2022/06/29 02:06:35;;;;;;;0.20;0.20;;;25.90;87.60;;;;;;5050548;28;20056;-56
2022/06/29 02:09:02;;;;;;;0.20;0.20;;;25.90;87.80;;;;;;5050121;28;20044;-52
2022/06/29 02:11:29;;;;;;;0.63;0.63;;;25.90;87.80;;;;;;5061125;28;20057;-51
2022/06/29 02:13:57;;;;;;;0.40;0.40;;;25.90;87.90;;;;;;5049000;28;20144;-56
2022/06/29 02:16:24;;;;;;;0.30;0.30;;;25.90;88.00;;;;;;5051474;28;20520;-53
2022/06/29 02:18:51;;;;;;;0.32;0.32;;;25.90;88.60;;;;;;5049806;28;20140;-55
2022/06/29 02:21:19;;;;;;;1.80;1.00;;;25.90;88.10;;;;;;5055486;28;20056;-56
2022/06/29 02:23:46;;;;;;;0.20;0.20;;;25.90;88.10;;;;;;5051292;28;20056;-53
2022/06/29 02:26:14;;;;;;;0.30;0.30;;;25.90;88.20;;;;;;5050818;28;20383;-58
2022/06/29 02:28:41;;;;;;;0.52;0.52;;;25.90;88.20;;;;;;5052914;28;20049;-56
2022/06/29 02:36:41;;;;;;;0.30;0.30;;;25.90;88.30;;;;;;5062731;28;20056;-59
2022/06/29 02:39:08;;;;;;;0.50;0.50;;;25.90;88.30;;;;;;5077583;28;20048;-56
2022/06/29 02:41:35;;;;;;;0.28;0.28;;;25.90;89.00;;;;;;5054746;28;20044;-55
2022/06/29 02:44:03;;;;;;;0.30;0.30;;;25.90;88.40;;;;;;5064370;28;20056;-57
2022/06/29 02:46:30;;;;;;;1.25;0.68;;;25.90;88.40;;;;;;5051023;28;20053;-54
2022/06/29 02:48:58;;;;;;;1.45;0.57;;;25.90;88.50;;;;;;5054752;28;20049;-56
2022/06/29 02:51:25;;;;;;;0.50;0.40;;;25.90;88.60;;;;;;5049409;28;20045;-55
2022/06/29 02:53:53;;;;;;;0.57;0.47;;;25.90;88.60;;;;;;5048685;28;20041;-52
2022/06/29 02:56:20;;;;;;;0.38;0.38;;;25.90;88.80;;;;;;5049090;28;20056;-57
2022/06/29 02:58:47;;;;;;;0.20;0.20;;;25.90;88.80;;;;;;5051903;28;20048;-51
2022/06/29 03:01:14;;;;;;;0.30;0.30;;;25.90;89.00;;;;;;5050306;28;20045;-52
2022/06/29 03:03:42;;;;;;;0.40;0.40;;;25.90;89.00;;;;;;5049024;28;20045;-54
2022/06/29 03:06:09;;;;;;;0.20;0.20;;;25.80;88.90;;;;;;5053603;28;20049;-54
2022/06/29 03:08:36;;;;;;;0.30;0.30;;;25.90;89.00;;;;;;5058916;28;20064;-58
2022/06/29 03:11:04;;;;;;;0.40;0.40;;;25.90;89.10;;;;;;5058230;28;20752;-54
2022/06/29 03:13:31;;;;;;;;;;;25.80;89.10;;;;;;5048524;28;20053;-56
2022/06/29 03:15:59;;;;;;;0.30;0.30;;;25.80;89.10;;;;;;5049503;28;20574;-52
2022/06/29 03:18:26;;;;;;;0.20;0.20;;;25.80;89.10;;;;;;5060704;28;20049;-55
2022/06/29 03:20:53;;;;;;;;;;;25.80;89.10;;;;;;5049301;28;20571;-56
2022/06/29 03:23:21;;;;;;;1.45;0.60;;;25.80;89.10;;;;;;5059731;28;19924;-50
2022/06/29 03:25:48;;;;;;;0.35;0.35;;;25.80;89.20;;;;;;5063906;28;20056;-51
2022/06/29 03:28:15;;;;;;;0.20;0.20;;;25.80;89.30;;;;;;5057546;28;20060;-53
2022/06/29 03:30:43;;;;;;;0.45;0.45;;;25.80;89.80;;;;;;5051196;28;20070;-51
2022/06/29 03:33:10;;;;;;;0.30;0.30;;;25.80;89.30;;;;;;5066971;28;20428;-52
2022/06/29 03:35:37;;;;;;;0.28;0.28;;;25.80;89.30;;;;;;5051648;28;20052;-56
2022/06/29 03:38:05;;;;;;;0.28;0.28;;;25.80;89.40;;;;;;5049097;28;20065;-58
2022/06/29 03:40:32;;;;;;;0.20;0.20;;;25.80;89.50;;;;;;5049695;28;20049;-55
2022/06/29 03:42:59;;;;;;;0.20;0.20;;;25.80;89.50;;;;;;5050321;28;20049;-56
2022/06/29 03:45:27;;;;;;;1.45;0.82;;;25.80;89.50;;;;;;5061719;28;20441;-54
2022/06/29 03:47:54;;;;;;;0.65;0.65;;;25.80;89.60;;;;;;5047313;28;20048;-54
2022/06/29 03:50:21;;;;;;;0.20;0.20;;;25.80;89.60;;;;;;5049133;28;20044;-57
2022/06/29 03:52:49;;;;;;;0.30;0.30;;;25.80;89.70;;;;;;5047984;28;20099;-58
2022/06/29 03:55:16;;;;;;;1.65;1.00;;;25.80;89.80;;;;;;5048198;28;20040;-55
2022/06/29 03:57:44;;;;;;;0.20;0.20;;;25.80;89.80;;;;;;5049315;28;20087;-49
2022/06/29 04:00:12;;;;;;;0.70;0.47;;;25.80;90.10;;;;;;5059414;28;20063;-53
2022/06/29 04:02:39;;;;;;;1.15;0.57;;;25.80;89.90;;;;;;5047730;28;20053;-55
2022/06/29 04:05:07;;;;;;;;;;;25.80;89.90;;;;;;5048450;28;20045;-53
2022/06/29 04:07:35;;;;;;;0.28;0.28;;;25.80;90.00;;;;;;5058552;28;19933;-53
2022/06/29 04:10:03;;;;;;;0.20;0.20;;;25.80;90.00;;;;;;5047427;28;20045;-51
2022/06/29 04:12:34;;;;;;;0.30;0.30;;;25.80;90.00;;;;;;5052391;28;20060;-53
2022/06/29 04:15:03;;;;;;;0.30;0.30;;;25.80;90.00;;;;;;5047217;28;20052;-54
2022/06/29 04:17:31;;;;;;;0.73;0.55;;;25.80;90.00;;;;;;5047940;28;20404;-55
2022/06/29 04:19:58;;;;;;;;;;;25.80;90.00;;;;;;5048088;28;20052;-55
2022/06/29 04:22:26;;;;;;;0.40;0.40;;;25.80;90.00;;;;;;5047558;28;19928;-53
2022/06/29 04:24:53;;;;;;;0.30;0.30;;;25.80;90.00;;;;;;5047848;28;20053;-56
2022/06/29 04:27:20;;;;;;;0.28;0.28;;;25.80;90.00;;;;;;5047017;28;20072;-55
2022/06/29 04:29:48;;;;;;;;;;;25.80;90.00;;;;;;5059212;28;20478;-56
2022/06/29 04:32:15;;;;;;;0.20;0.20;;;25.80;90.00;;;;;;5046676;28;19935;-56
2022/06/29 04:34:42;;;;;;;0.30;0.30;;;25.80;90.00;;;;;;5047231;28;20052;-56
2022/06/29 04:37:10;;;;;;;2.28;1.05;;;25.80;90.00;;;;;;5052548;28;20041;-52
2022/06/29 04:39:37;;;;;;;0.25;0.25;;;25.80;90.00;;;;;;5048003;28;20049;-53
2022/06/29 04:42:05;;;;;;;0.95;0.60;;;25.80;90.00;;;;;;5051897;28;20052;-54
2022/06/29 04:44:32;;;;;;;0.30;0.30;;;25.80;90.00;;;;;;5048426;28;20057;-51
2022/06/29 04:46:59;;;;;;;0.30;0.30;;;25.80;90.00;;;;;;5056158;28;20048;-55
2022/06/29 04:49:27;;;;;;;1.10;0.52;;;25.80;90.00;;;;;;5048735;28;20830;-52
2022/06/29 04:51:55;;;;;;;0.38;0.38;;;25.80;90.10;;;;;;5048330;28;20052;-52
2022/06/29 04:54:22;;;;;;;0.20;0.20;;;25.70;90.00;;;;;;5047561;28;20060;-56
2022/06/29 04:56:50;;;;;;;0.38;0.38;;;25.70;90.10;;;;;;5047793;28;20240;-53
2022/06/29 04:59:18;;;;;;;0.50;0.50;;;25.80;90.10;;;;;;5049289;28;20044;-52
2022/06/29 05:01:49;;;;;;;0.30;0.30;;;25.80;90.10;;;;;;5047810;28;20052;-55
2022/06/29 05:04:16;;;;;;;0.20;0.20;;;25.70;90.10;;;;;;5045126;28;20152;-57
2022/06/29 05:06:44;;;;;;;4.15;1.27;;;25.80;90.10;;;;;;5047693;28;20052;-55
2022/06/29 05:09:11;;;;;;;0.47;0.47;;;25.70;90.10;;;;;;5047390;28;20057;-54
2022/06/29 05:11:38;;;;;;;0.57;0.57;;;25.70;90.10;;;;;;5051614;28;20037;-54
2022/06/29 05:14:06;;;;;;;0.30;0.30;;;25.80;90.10;;;;;;5046253;28;20504;-50
2022/06/29 05:16:33;;;;;;;;;;;25.70;90.10;;;;;;5048652;28;20048;-54
2022/06/29 05:19:01;;;;;;;0.20;0.20;;;25.70;90.10;;;;;;5047341;28;19928;-55
2022/06/29 05:21:29;;;;;;;;;;;25.70;90.10;;;;;;5051901;28;20041;-55
2022/06/29 05:23:56;;;;;;;0.35;0.35;;;25.70;90.10;;;;;;5047032;28;20409;-55
2022/06/29 05:26:24;;;;;;;;;;;25.70;90.10;;;;;;5047474;28;20710;-54
2022/06/29 05:28:52;;;;;;;1.08;0.65;;;25.70;90.10;;;;;;5045892;28;19940;-53
2022/06/29 05:31:19;;;;;;;0.28;0.28;;;25.80;90.20;;;;;;5046992;28;20049;-56
2022/06/29 05:33:47;;;;;;;;;;;25.80;90.20;;;;;;5046920;28;20052;-53
2022/06/29 05:36:14;;;;;;;0.55;0.43;;;25.80;90.20;;;;;;5047447;28;19979;-54
2022/06/29 05:38:41;;;;;;;;;;;25.80;90.20;;;;;;5047712;28;20045;-52
2022/06/29 05:41:11;;;;;;;0.20;0.20;;;25.80;90.20;;;;;;5052101;28;19928;-55
2022/06/29 05:43:38;;;;;;;2.70;1.75;;;25.80;90.20;;;;;;5046268;28;20056;-50
2022/06/29 05:46:05;;;;;;;0.28;0.28;;;25.80;90.20;;;;;;5047603;28;20056;-52
2022/06/29 05:48:33;;;;;;;0.20;0.20;;;25.70;90.20;;;;;;5047441;28;20060;-56
2022/06/29 05:51:00;;;;;;;1.15;0.65;;;25.70;90.30;;;;;;5047571;28;20049;-52
2022/06/29 05:53:28;;;;;;;0.40;0.40;;;25.80;90.30;;;;;;5048759;28;20045;-54
2022/06/29 05:55:55;;;;;;;0.55;0.55;;;25.80;90.30;;;;;;5050947;28;20518;-50
2022/06/29 05:58:23;;;;;;;0.20;0.20;;;25.80;90.30;;;;;;5046823;28;20051;-56
2022/06/29 06:00:50;;;;;;;0.20;0.20;;;25.80;90.30;;;;;;5055137;28;20045;-50
2022/06/29 06:03:18;;;;;;;0.20;0.20;;;25.80;90.30;;;;;;5046127;28;20504;-53
2022/06/29 06:05:46;;;;;;;0.40;0.40;;;25.80;90.30;;;;;;5046809;28;20060;-54
2022/06/29 06:08:15;;;;;;;0.30;0.30;;;25.70;90.30;;;;;;5046738;28;20057;-56
2022/06/29 06:10:42;;;;;;;0.20;0.20;;;25.80;90.30;;;;;;5049693;28;20048;-55
2022/06/29 06:13:09;;;;;;;;;;;25.80;90.30;;;;;;5057964;28;20370;-53
2022/06/29 06:15:38;;;;;;;0.20;0.20;;;25.80;90.30;;;;;;5049653;28;19925;-53
2022/06/29 06:18:05;;;;;;;0.45;0.45;;;25.80;90.30;;;;;;5064336;28;20438;-51
2022/06/29 06:20:33;;;;;;;0.22;0.22;;;25.70;90.30;;;;;;5049835;28;20056;-53
2022/06/29 06:23:00;;;;;;;0.20;0.20;;;25.80;90.30;;;;;;5049748;28;20049;-53
2022/06/29 06:25:30;;;;;;;0.30;0.30;;;25.80;90.60;;;;;;5057971;28;20071;-53
2022/06/29 06:27:58;;;;;;;1.35;0.82;;;25.70;90.30;;;;;;5058617;28;20037;-51
2022/06/29 06:30:26;;;;;;;0.30;0.30;;;25.80;90.40;;;;;;5050828;28;20511;-53
2022/06/29 06:32:54;;;;;;;0.40;0.40;;;25.80;90.40;;;;;;5058592;28;20044;-57
2022/06/29 06:35:21;;;;;;;0.50;0.50;;;25.70;90.20;;;;;;5051380;28;20420;-58
2022/06/29 06:37:49;;;;;;;0.20;0.20;;;25.70;89.80;;;;;;5057043;28;20052;-49
2022/06/29 06:43:02;;;;;;;2.63;0.95;;;25.70;88.50;;;;;;5052660;28;20052;-51
2022/06/29 06:45:29;;;;;;;1.85;1.20;;;25.70;87.70;;;;;;5052567;28;20423;-56
2022/06/29 06:47:57;;;;;;;0.77;0.77;;;25.70;87.10;;;;;;5065916;28;20060;-51
2022/06/29 06:50:24;;;;;;;0.63;0.63;;;25.70;86.60;;;;;;5051095;28;20408;-53
2022/06/29 06:52:51;;;;;;;1.55;0.90;;;25.70;86.30;;;;;;5048546;28;20048;-48
2022/06/29 06:55:19;;;;;;;0.85;0.68;;;25.70;85.90;;;;;;5054142;28;20041;-55
2022/06/29 06:57:46;;;;;;;;;;;25.70;85.60;;;;;;5055883;28;20263;-54
2022/06/29 07:00:14;;;;;;;1.58;0.82;;;25.70;85.70;;;;;;5055181;28;19925;-54
2022/06/29 07:02:41;;;;;;;0.55;0.50;;;25.70;85.80;;;;;;5053607;28;20040;-55
2022/06/29 07:05:08;;;;;;;0.57;0.57;;;25.70;85.60;;;;;;5056551;28;20052;-54
2022/06/29 07:07:36;;;;;;;1.45;0.98;;;25.70;85.20;;;;;;5051954;28;20054;-56
2022/06/29 07:10:04;;;;;;;0.35;0.35;;;25.70;85.40;;;;;;5058737;28;20064;-52
2022/06/29 07:12:31;;;;;;;0.45;0.45;;;25.70;84.70;;;;;;5058867;28;20041;-55
2022/06/29 07:14:58;;;;;;;0.52;0.52;;;25.70;84.50;;;;;;5059743;28;20051;-58
2022/06/29 07:17:26;;;;;;;2.88;1.67;;;25.70;84.20;;;;;;5055102;28;20052;-55
2022/06/29 07:19:53;;;;;;;1.02;0.93;;;25.70;84.50;;;;;;5050013;28;20109;-56
2022/06/29 07:22:20;;;;;;;1.45;1.05;;;25.70;84.30;;;;;;5059562;28;20048;-50
2022/06/29 07:24:48;;;;;;;0.85;0.85;;;25.70;84.50;;;;;;5058507;28;20079;-55
2022/06/29 07:27:15;;;;;;;2.33;0.90;;;25.70;84.80;;;;;;5060197;28;20456;-56
2022/06/29 07:29:43;;;;;;;1.55;1.05;;;25.70;85.00;;;;;;5055734;28;20044;-53
2022/06/29 07:32:10;;;;;;;;;;;25.80;85.20;;;;;;5050882;28;20273;-54
2022/06/29 07:34:37;;;;;;;0.77;0.77;;;25.70;85.10;;;;;;5054895;28;19925;-52
2022/06/29 07:37:05;;;;;;;1.40;1.23;;;25.80;85.10;;;;;;5050768;28;20047;-52
2022/06/29 07:39:32;;;;;;;0.20;0.20;;;25.80;85.00;;;;;;5057995;28;20040;-49
2022/06/29 07:42:11;;;;;;;1.13;0.73;;;25.70;84.80;;;;;;5061251;28;20044;-55
2022/06/29 07:44:38;;;;;;;2.15;1.17;;;25.80;84.80;;;;;;5052444;28;20798;-51
2022/06/29 07:47:06;;;;;;;1.55;1.10;;;25.80;84.90;;;;;;5059605;28;20147;-52
2022/06/29 07:49:33;;;;;;;0.88;0.88;;;25.80;85.00;;;;;;5052058;28;20055;-50
2022/06/29 07:52:01;;;;;;;1.48;1.38;;;25.90;85.20;;;;;;5053186;28;20036;-51
2022/06/29 07:54:28;;;;;;;;;;;25.90;85.40;;;;;;5055306;28;20056;-53
2022/06/29 07:56:55;;;;;;;2.30;1.17;;;25.90;85.70;;;;;;5057983;28;19928;-59
2022/06/29 07:59:43;;;;;;;;;;;25.90;85.80;;;;;;5060563;28;20044;-52
2022/06/29 08:02:10;;;;;;;0.88;0.88;;;25.90;86.40;;;;;;5058973;28;19976;-49
2022/06/29 08:04:38;;;;;;;1.60;0.85;;;25.90;86.60;;;;;;5061167;28;20501;-54
2022/06/29 08:07:26;;;;;;;2.58;1.08;;;25.90;86.70;;;;;;5058225;28;20519;-50
2022/06/29 08:09:53;;;;;;;1.05;0.93;;;26.00;86.80;;;;;;5055127;28;20047;-48
2022/06/29 08:12:21;;;;;;;0.52;0.52;;;25.90;86.80;;;;;;5059502;28;21712;-54
2022/06/29 08:14:48;;;;;;;2.38;1.13;;;26.00;87.30;;;;;;5050803;28;20377;-52
2022/06/29 08:17:16;;;;;;;4.57;1.10;;;26.00;87.20;;;;;;5051103;28;20057;-49
2022/06/29 08:19:43;;;;;;;13.10;2.33;;;25.90;87.10;;;;;;5051245;28;20379;-50
2022/06/29 08:22:11;;;;;;;0.65;0.63;;;25.90;87.20;;;;;;5060255;28;20407;-47
2022/06/29 08:24:39;;;;;;;1.75;1.20;;;26.00;87.20;;;;;;5055955;28;20056;-53
2022/06/29 08:27:06;;;;;;;0.73;0.70;;;26.00;89.10;;;;;;5055832;28;20052;-50
2022/06/29 08:29:54;;;;;;;;;;;26.00;88.20;;;;;;5056350;28;20055;-51
2022/06/29 08:32:21;;;;;;;1.17;0.88;;;26.00;88.60;;;;;;5051748;28;19925;-52
2022/06/29 08:34:49;;;;;;;2.20;1.52;;;26.00;89.60;;;;;;5050909;28;20048;-55
2022/06/29 08:37:17;;;;;;;1.30;0.77;;;26.00;90.70;;;;;;5055490;28;20055;-53
2022/06/29 08:39:45;;;;;;;0.40;0.40;;;26.10;90.60;;;;;;5054402;28;20635;-55
2022/06/29 08:42:17;;;;;;;0.60;0.60;;;26.10;90.20;;;;;;5058150;28;20040;-56
2022/06/29 08:44:46;;;;;;;3.30;1.85;;;26.10;90.20;;;;;;5050847;28;20503;-55
2022/06/29 08:47:13;;;;;;;2.55;1.80;;;26.10;90.30;;;;;;5048855;28;20052;-55
2022/06/29 08:49:41;;;;;;;0.70;0.70;;;26.10;90.40;;;;;;5055410;28;20055;-54
2022/06/29 08:52:09;;;;;;;3.80;1.70;;;26.10;90.40;;;;;;5058242;28;20060;-51
2022/06/29 08:54:42;;;;;;;0.70;0.70;;;26.10;90.50;;;;;;5056276;28;20040;-53
2022/06/29 08:57:11;;;;;;;0.98;0.93;;;26.20;90.40;;;;;;5059186;28;20048;-59
2022/06/29 08:59:39;;;;;;;0.88;0.82;;;26.20;90.90;;;;;;5053251;28;20041;-57
2022/06/29 09:02:26;;;;;;;2.60;1.48;;;26.30;91.30;;;;;;5048981;28;20048;-56
2022/06/29 09:04:54;;;;;;;1.23;1.13;;;26.30;91.40;;;;;;5046688;28;20037;-51
2022/06/29 09:07:23;;;;;;;17.20;3.28;;;26.30;91.40;;;;;;5069843;28;20045;-50
2022/06/29 09:09:58;;;;;;;2.00;1.13;;;26.30;90.80;;;;;;5052480;28;20423;-55
2022/06/29 09:12:26;;;;;;;0.70;0.68;;;26.30;90.80;;;;;;5058007;28;20056;-55
2022/06/29 09:14:53;;;;;;;2.13;1.55;;;26.30;90.90;;;;;;5057602;28;20041;-49
2022/06/29 09:17:22;;;;;;;1.13;0.98;;;26.30;91.70;;;;;;5056526;28;20055;-57
2022/06/29 09:19:49;;;;;;;0.75;0.73;;;26.40;91.70;;;;;;5056565;28;20048;-61
2022/06/29 09:22:25;;;;;;;0.57;0.57;;;26.40;91.90;;;;;;5056441;28;20143;-50
2022/06/29 09:24:53;;;;;;;;;;;26.40;91.40;;;;;;5055399;28;20404;-57
2022/06/29 09:27:44;;;;;;;0.45;0.45;;;26.40;90.90;;;;;;5058612;28;20387;-55
2022/06/29 09:30:25;;;;;;;0.50;0.50;;;26.50;90.90;;;;;;5057484;28;20526;-52
2022/06/29 09:33:04;;;;;;;0.60;0.60;;;26.50;91.00;;;;;;5052000;28;20042;-55
2022/06/29 09:35:33;;;;;;;1.00;0.95;;;26.50;91.10;;;;;;5052359;28;20056;-55
2022/06/29 09:38:26;;;;;;;0.52;0.52;;;26.50;91.10;;;;;;5059875;28;20045;-55
2022/06/29 09:41:03;;;;;;;1.35;1.25;;;26.50;91.10;;;;;;5051531;28;20045;-52
2022/06/29 09:43:32;;;;;;;3.57;2.00;;;26.50;91.10;;;;;;5050472;28;20053;-54
2022/06/29 09:46:01;;;;;;;2.03;1.67;;;26.50;91.10;;;;;;5057630;28;20059;-54
2022/06/29 09:48:30;;;;;;;0.60;0.60;;;26.40;91.00;;;;;;5064072;28;20055;-57
2022/06/29 09:50:59;;;;;;;0.45;0.45;;;26.40;91.00;;;;;;5050840;28;20048;-54
2022/06/29 09:53:34;;;;;;;0.52;0.43;;;26.40;91.00;;;;;;5050528;28;20041;-55
2022/06/29 09:56:04;;;;;;;0.90;0.85;;;26.40;91.00;;;;;;5055948;28;20084;-57
2022/06/29 09:58:52;;;;;;;1.63;1.08;;;26.40;90.90;;;;;;5052761;28;20040;-54
2022/06/29 10:04:15;;;;;;;0.63;0.63;;;26.40;90.80;;;;;;5054609;28;20048;-55
2022/06/29 10:06:45;;;;;;;1.50;1.08;;;26.40;90.80;;;;;;5061546;28;20049;-56
2022/06/29 10:09:14;;;;;;;1.73;1.20;;;26.40;90.80;;;;;;5060883;28;20044;-56
2022/06/29 10:14:44;;;;;;;0.70;0.70;;;26.40;90.90;;;;;;5053168;28;20487;-54
2022/06/29 10:17:34;;;;;;;0.93;0.93;;;26.40;91.10;;;;;;5063872;28;20106;-58
2022/06/29 10:20:39;;;;;;;3.60;1.00;;;26.40;91.10;;;;;;5057512;28;20049;-58
2022/06/29 10:23:07;;;;;;;1.10;1.05;;;26.40;91.10;;;;;;5064511;28;20048;-59
2022/06/29 10:25:35;;;;;;;;;;;26.40;91.20;;;;;;5058077;28;20055;-58
2022/06/29 10:28:10;;;;;;;0.80;0.65;;;26.40;91.30;;;;;;5052796;28;19921;-59
2022/06/29 10:30:38;;;;;;;3.30;0.82;;;26.40;91.40;;;;;;5060407;28;20048;-59
2022/06/29 10:33:37;;;;;;;3.75;1.77;;;26.40;91.70;;;;;;5054786;28;20052;-60
2022/06/29 10:36:09;;;;;;;1.95;1.00;;;26.40;91.90;;;;;;5050412;28;20424;-61
2022/06/29 10:38:54;;;;;;;0.50;0.50;;;26.40;91.90;;;;;;5061246;28;20045;-57
2022/06/29 10:44:08;;;;;;;1.77;1.02;;;26.50;92.60;;;;;;5060558;28;20053;-60
2022/06/29 10:46:56;;;;;;;2.55;1.77;;;26.40;92.80;;;;;;5061467;28;20044;-55
2022/06/29 10:49:24;;;;;;;1.63;0.68;;;26.40;92.80;;;;;;5053033;28;20052;-55
2022/06/29 10:51:51;;;;;;;2.33;1.17;;;26.50;92.90;;;;;;5060898;28;20227;-54
2022/06/29 10:54:22;;;;;;;;;;;26.40;93.00;;;;;;5049700;28;20052;-51
2022/06/29 10:56:51;;;;;;;0.40;0.40;;;26.40;93.10;;;;;;5057838;28;19929;-54
2022/06/29 10:59:32;;;;;;;2.30;1.35;;;26.40;93.30;;;;;;5052156;28;20040;-53
2022/06/29 11:02:09;;;;;;;1.45;0.95;;;26.40;93.40;;;;;;5059339;28;20330;-52
2022/06/29 11:04:38;;;;;;;0.80;0.80;;;26.40;93.40;;;;;;5058337;28;20075;-53
2022/06/29 11:12:48;;;;;;;2.83;1.13;;;26.40;93.10;;;;;;5059393;28;19928;-54
2022/06/29 11:15:48;;;;;;;1.38;1.27;;;26.40;93.00;;;;;;5053785;28;20095;-52
2022/06/29 11:18:18;;;;;;;3.72;1.52;;;26.40;92.80;;;;;;5060260;28;20072;-52
2022/06/29 11:20:50;;;;;;;0.82;0.82;;;26.40;93.00;;;;;;5054427;28;20052;-56
2022/06/29 11:23:24;;;;;;;2.40;1.48;;;26.30;92.90;;;;;;5048296;28;20048;-55
2022/06/29 11:25:54;;;;;;;0.80;0.47;;;26.40;92.90;;;;;;5053982;28;20044;-53
2022/06/29 11:28:29;;;;;;;0.85;0.85;;;26.40;92.90;;;;;;5054026;28;20064;-55
2022/06/29 11:31:22;;;;;;;0.50;0.50;;;26.40;92.90;;;;;;5058598;28;20053;-53
2022/06/29 11:33:52;;;;;;;2.53;0.63;;;26.40;93.00;;;;;;5049536;28;20041;-59
2022/06/29 11:36:28;;;;;;;1.40;1.30;;;26.40;93.00;;;;;;5048946;28;20048;-53
2022/06/29 11:39:03;;;;;;;1.58;0.93;;;26.30;93.10;;;;;;5065396;28;20048;-54
2022/06/29 11:44:27;;;;;;;5.63;1.70;;;26.40;93.20;;;;;;5047442;28;20053;-53
2022/06/29 11:46:57;;;;;;;7.47;2.60;;;26.30;93.30;;;;;;5052273;28;20049;-54
2022/06/29 11:49:36;;;;;;;2.78;2.05;;;26.40;93.30;;;;;;5049738;28;20048;-56
2022/06/29 11:52:05;;;;;;;2.30;1.83;;;26.30;93.40;;;;;;5048647;28;20468;-52
2022/06/29 11:55:03;;;;;;;0.40;0.40;;;26.30;93.40;;;;;;5060791;28;20048;-53
2022/06/29 11:57:30;;;;;;;3.42;1.00;;;26.30;93.50;;;;;;5051478;28;20045;-56
2022/06/29 12:00:08;;;;;;;1.77;1.33;;;26.30;93.50;;;;;;5056111;28;20436;-58
2022/06/29 12:02:35;;;;;;;1.13;0.80;;;26.30;93.70;;;;;;5062605;28;20041;-56
2022/06/29 12:05:04;;;;;;;2.58;1.35;;;26.40;93.70;;;;;;5060626;28;20033;-53
2022/06/29 12:07:31;;;;;;;1.92;1.08;;;26.30;93.70;;;;;;5049887;28;20404;-51
2022/06/29 12:09:59;;;;;;;2.20;1.10;;;26.30;93.70;;;;;;5047745;28;20056;-50
2022/06/29 12:12:27;;;;;;;2.92;1.33;;;26.40;93.80;;;;;;5049381;28;20068;-53
2022/06/29 12:14:54;;;;;;;2.08;1.42;;;26.40;93.80;;;;;;5064944;28;20052;-51
2022/06/29 12:17:21;;;;;;;0.50;0.50;;;26.40;93.90;;;;;;5056082;28;20053;-53
2022/06/29 12:19:49;;;;;;;0.70;0.70;;;26.40;93.90;;;;;;5047839;28;20045;-55
2022/06/29 12:22:19;;;;;;;0.90;0.90;;;26.40;94.00;;;;;;5050383;28;20044;-55
2022/06/29 12:24:47;;;;;;;1.35;0.75;;;26.40;94.00;;;;;;5074389;28;20052;-52
2022/06/29 12:27:14;;;;;;;1.98;1.35;;;26.40;94.00;;;;;;5050693;28;20793;-52
2022/06/29 12:29:41;;;;;;;1.92;1.23;;;26.40;94.10;;;;;;5047555;28;20519;-51
2022/06/29 12:32:09;;;;;;;0.35;0.35;;;26.40;94.10;;;;;;5049051;28;20060;-54
2022/06/29 12:34:36;;;;;;;2.45;1.45;;;26.40;94.10;;;;;;5047691;28;20489;-56
2022/06/29 12:37:05;;;;;;;1.20;1.15;;;26.40;94.10;;;;;;5048084;28;20040;-56
2022/06/29 12:39:32;;;;;;;3.10;1.38;;;26.40;94.20;;;;;;5046022;28;20152;-58
2022/06/29 12:42:03;;;;;;;;;;;26.40;94.30;;;;;;5049608;28;20052;-56
2022/06/29 12:44:30;;;;;;;2.58;1.27;;;26.40;94.30;;;;;;5047175;28;19932;-57
2022/06/29 12:46:57;;;;;;;2.55;1.42;;;26.40;94.60;;;;;;5049146;28;20420;-56
2022/06/29 12:49:25;;;;;;;1.67;1.05;;;26.40;94.40;;;;;;5048147;28;20053;-56
2022/06/29 12:51:52;;;;;;;0.55;0.55;;;26.40;94.40;;;;;;5051926;28;20538;-58
2022/06/29 12:54:20;;;;;;;1.55;0.85;;;26.40;94.50;;;;;;5046549;28;20049;-55
2022/06/29 12:56:48;;;;;;;0.52;0.50;;;26.40;94.50;;;;;;5061543;28;20045;-54
2022/06/29 12:59:16;;;;;;;4.68;1.33;;;26.40;94.50;;;;;;5048197;28;20072;-54
2022/06/29 13:01:44;;;;;;;0.93;0.85;;;26.40;94.60;;;;;;5063096;28;20045;-53
2022/06/29 13:04:11;;;;;;;;;;;26.40;94.60;;;;;;5048240;28;20052;-54
2022/06/29 13:06:39;;;;;;;;;;;26.40;94.70;;;;;;5049385;28;19924;-59
2022/06/29 13:09:06;;;;;;;0.88;0.88;;;26.40;94.70;;;;;;5047152;28;20407;-56
2022/06/29 13:11:35;;;;;;;1.52;1.33;;;26.40;94.70;;;;;;5062767;28;20060;-59
2022/06/29 13:14:02;;;;;;;0.85;0.82;;;26.40;94.70;;;;;;5053788;28;20527;-56
2022/06/29 13:16:30;;;;;;;1.45;0.93;;;26.40;94.80;;;;;;5064755;28;20044;-56
2022/06/29 13:18:57;;;;;;;1.42;1.25;;;26.40;94.80;;;;;;5050061;28;20074;-57
2022/06/29 13:21:25;;;;;;;1.85;0.68;;;26.40;94.80;;;;;;5066185;28;20523;-57
2022/06/29 13:23:52;;;;;;;0.30;0.30;;;26.40;94.80;;;;;;5080524;28;20047;-57
2022/06/29 13:26:19;;;;;;;;;;;26.40;94.90;;;;;;5051381;28;20580;-55
2022/06/29 13:28:48;;;;;;;0.73;0.73;;;26.40;94.90;;;;;;5053971;28;19931;-55